createdAt,value
2018-08-23T00:01:32.662Z,97287.23
2018-08-23T00:04:06.196Z,97285.09
2018-08-23T00:06:33.968Z,97288.03
2018-08-23T00:09:01.592Z,97287.23
2018-08-23T00:11:31.946Z,97286.44
2018-08-23T00:13:59.551Z,97285.09
2018-08-23T00:16:46.939Z,97284.53
2018-08-23T00:19:14.937Z,97284.33
2018-08-23T00:21:44.112Z,97289.74
2018-08-23T00:24:20.543Z,97285.67
2018-08-23T00:26:49.794Z,97291.86
2018-08-23T00:29:22.911Z,97289.74
2018-08-23T00:31:51.713Z,97286.23
2018-08-23T00:34:19.525Z,97288.39
2018-08-23T00:36:47.147Z,97288.73
2018-08-23T00:39:14.790Z,97287.38
2018-08-23T00:41:47.914Z,97288.15
2018-08-23T00:44:15.558Z,97287.59
2018-08-23T00:46:43.173Z,97294.92
2018-08-23T00:49:10.962Z,97288.15
2018-08-23T00:51:39.445Z,97290.86
2018-08-23T00:54:07.100Z,97290.09
2018-08-23T00:56:34.716Z,97288.73
2018-08-23T00:59:03.228Z,97290.09
2018-08-23T01:01:31.585Z,97284.67
2018-08-23T01:03:59.207Z,97281.17
2018-08-23T01:06:32.764Z,97293.16
2018-08-23T01:09:00.496Z,97294.16
2018-08-23T01:11:28.112Z,97285.44
2018-08-23T01:13:55.741Z,97282.32
2018-08-23T01:16:23.377Z,97287.73
2018-08-23T01:18:51.132Z,97287.73
2018-08-23T01:21:18.781Z,97287.50
2018-08-23T01:23:46.394Z,97286.94
2018-08-23T01:26:14.017Z,97283.67
2018-08-23T01:28:41.641Z,97283.67
2018-08-23T01:31:28.145Z,97282.88
2018-08-23T01:33:57.427Z,97280.97
2018-08-23T01:36:30.269Z,97273.39
2018-08-23T01:38:57.899Z,97278.61
2018-08-23T01:41:25.533Z,97271.25
2018-08-23T01:43:53.170Z,97274.75
2018-08-23T01:46:21.279Z,97274.55
2018-08-23T01:48:53.752Z,97274.75
2018-08-23T01:51:21.486Z,97265.63
2018-08-23T01:53:49.248Z,97271.04
2018-08-23T01:56:17.254Z,97267.53
2018-08-23T01:58:45.608Z,97266.98
2018-08-23T02:01:18.934Z,97266.98
2018-08-23T02:03:46.665Z,97262.12
2018-08-23T02:06:14.544Z,97259.41
2018-08-23T02:08:43.932Z,97262.12
2018-08-23T02:11:11.587Z,97256.70
2018-08-23T02:13:39.219Z,97260.00
2018-08-23T02:16:06.841Z,97261.91
2018-08-23T02:18:34.764Z,97262.70
2018-08-23T02:21:07.900Z,97255.94
2018-08-23T02:23:42.385Z,97255.14
2018-08-23T02:26:10.271Z,97255.70
2018-08-23T02:28:37.881Z,97256.49
2018-08-23T02:31:05.499Z,97252.98
2018-08-23T02:33:33.116Z,97252.98
2018-08-23T02:36:22.634Z,97248.92
2018-08-23T02:38:56.329Z,97247.57
2018-08-23T02:41:23.981Z,97249.52
2018-08-23T02:43:51.629Z,97252.98
2018-08-23T02:46:19.244Z,97248.72
2018-08-23T02:48:46.876Z,97245.45
2018-08-23T02:51:14.508Z,97240.59
2018-08-23T02:53:46.317Z,97239.80
2018-08-23T02:56:16.244Z,97240.39
2018-08-23T02:58:54.965Z,97241.74
2018-08-23T03:01:22.596Z,97243.86
2018-08-23T03:03:59.658Z,97242.30
2018-08-23T03:06:30.488Z,97241.74
2018-08-23T03:08:58.137Z,97246.36
2018-08-23T03:11:25.834Z,97249.87
2018-08-23T03:13:53.449Z,97242.30
2018-08-23T03:16:21.224Z,97241.50
2018-08-23T03:18:48.858Z,97240.15
2018-08-23T03:21:16.486Z,97245.36
2018-08-23T03:23:45.064Z,97254.84
2018-08-23T03:26:12.752Z,97255.64
2018-08-23T03:28:40.530Z,97264.33
2018-08-23T03:31:08.155Z,97264.33
2018-08-23T03:33:36.085Z,97265.67
2018-08-23T03:36:03.721Z,97265.67
2018-08-23T03:38:31.350Z,97267.59
2018-08-23T03:43:44.945Z,97263.53
2018-08-23T03:46:12.593Z,97263.88
2018-08-23T03:48:40.219Z,97270.09
2018-08-23T03:51:07.837Z,97266.03
2018-08-23T03:53:47.341Z,97259.26
2018-08-23T03:56:16.489Z,97259.05
2018-08-23T03:58:44.196Z,97261.17
2018-08-23T04:01:12.746Z,97263.67
2018-08-23T04:03:40.460Z,97264.47
2018-08-23T04:06:18.278Z,97259.61
2018-08-23T04:08:46.011Z,97262.11
2018-08-23T04:11:13.649Z,97265.03
2018-08-23T04:13:41.314Z,97262.32
2018-08-23T04:16:09.250Z,97265.37
2018-08-23T04:18:36.906Z,97261.32
2018-08-23T04:21:04.539Z,97255.91
2018-08-23T04:23:32.233Z,97249.13
2018-08-23T04:25:59.857Z,97258.41
2018-08-23T04:28:27.518Z,97260.52
2018-08-23T04:30:55.141Z,97257.05
2018-08-23T04:33:22.782Z,97261.88
2018-08-23T04:35:50.449Z,97262.11
2018-08-23T04:38:18.101Z,97260.52
2018-08-23T04:40:51.138Z,97262.47
2018-08-23T04:43:18.815Z,97268.44
2018-08-23T04:45:46.445Z,97270.00
2018-08-23T04:48:14.088Z,97271.70
2018-08-23T04:50:41.713Z,97264.37
2018-08-23T04:53:09.365Z,97271.70
2018-08-23T04:55:36.981Z,97266.29
2018-08-23T04:58:05.169Z,97265.17
2018-08-23T05:00:33.045Z,97266.29
2018-08-23T05:03:00.715Z,97273.86
2018-08-23T05:05:28.352Z,97275.56
2018-08-23T05:07:56.057Z,97276.56
2018-08-23T05:10:23.692Z,97276.36
2018-08-23T05:12:51.312Z,97274.42
2018-08-23T05:15:18.969Z,97273.06
2018-08-23T05:17:46.678Z,97270.15
2018-08-23T05:20:14.325Z,97277.72
2018-08-23T05:22:48.461Z,97281.78
2018-08-23T05:25:16.341Z,97279.07
2018-08-23T05:27:53.750Z,97285.25
2018-08-23T05:30:21.391Z,97285.25
2018-08-23T05:32:49.017Z,97282.34
2018-08-23T05:35:16.659Z,97283.90
2018-08-23T05:37:44.295Z,97292.61
2018-08-23T05:40:11.933Z,97290.11
2018-08-23T05:42:49.241Z,97294.17
2018-08-23T05:45:16.910Z,97292.02
2018-08-23T05:47:44.596Z,97294.73
2018-08-23T05:50:12.193Z,97287.20
2018-08-23T05:52:39.828Z,97289.11
2018-08-23T05:55:07.453Z,97288.55
2018-08-23T05:57:35.080Z,97278.83
2018-08-23T06:00:02.769Z,97283.12
2018-08-23T06:02:30.394Z,97283.69
2018-08-23T06:04:58.031Z,97280.42
2018-08-23T06:07:25.649Z,97278.27
2018-08-23T06:09:53.333Z,97275.56
2018-08-23T06:12:20.971Z,97281.19
2018-08-23T06:14:48.585Z,97282.55
2018-08-23T06:17:16.213Z,97279.83
2018-08-23T06:19:43.838Z,97283.12
2018-08-23T06:22:11.470Z,97285.48
2018-08-23T06:24:39.100Z,97285.05
2018-08-23T06:27:06.749Z,97290.67
2018-08-23T06:29:35.310Z,97284.70
2018-08-23T06:32:10.269Z,97282.55
2018-08-23T06:34:45.510Z,97280.42
2018-08-23T06:37:13.214Z,97279.83
2018-08-23T06:39:40.830Z,97287.20
2018-08-23T06:42:08.463Z,97278.48
2018-08-23T06:44:42.670Z,97279.07
2018-08-23T06:47:11.762Z,97272.86
2018-08-23T06:49:39.734Z,97273.86
2018-08-23T06:52:14.353Z,97282.55
2018-08-23T06:54:42.494Z,97278.48
2018-08-23T06:57:10.619Z,97274.42
2018-08-23T06:59:38.768Z,97264.37
2018-08-23T07:02:06.597Z,97271.95
2018-08-23T07:04:34.225Z,97272.71
2018-08-23T07:07:01.875Z,97265.17
2018-08-23T07:09:29.501Z,97264.59
2018-08-23T07:12:04.654Z,97259.41
2018-08-23T07:14:32.954Z,97257.25
2018-08-23T07:17:05.041Z,97255.91
2018-08-23T07:19:33.706Z,97258.47
2018-08-23T07:22:01.987Z,97253.64
2018-08-23T07:24:37.587Z,97261.97
2018-08-23T07:27:06.110Z,97263.53
2018-08-23T07:29:34.382Z,97264.12
2018-08-23T07:32:03.216Z,97263.53
2018-08-23T07:34:30.833Z,97262.41
2018-08-23T07:36:59.505Z,97258.91
2018-08-23T07:39:27.129Z,97256.64
2018-08-23T07:41:54.786Z,97256.64
2018-08-23T07:44:22.429Z,97264.77
2018-08-23T07:46:50.060Z,97264.97
2018-08-23T07:49:17.702Z,97262.83
2018-08-23T07:51:45.350Z,97268.24
2018-08-23T07:54:17.625Z,97262.47
2018-08-23T07:56:45.338Z,97258.41
2018-08-23T07:59:13.621Z,97260.20
2018-08-23T08:01:41.318Z,97255.58
2018-08-23T08:04:09.061Z,97256.94
2018-08-23T08:06:37.250Z,97259.30
2018-08-23T08:09:07.030Z,97257.94
2018-08-23T08:11:40.222Z,97256.23
2018-08-23T08:14:13.870Z,97263.77
2018-08-23T08:16:41.500Z,97259.70
2018-08-23T08:19:09.137Z,97257.23
2018-08-23T08:21:36.833Z,97256.64
2018-08-23T08:24:04.551Z,97261.50
2018-08-23T08:26:32.293Z,97252.02
2018-08-23T08:29:00.309Z,97256.28
2018-08-23T08:31:28.255Z,97259.59
2018-08-23T08:33:57.568Z,97264.41
2018-08-23T08:36:25.745Z,97262.50
2018-08-23T08:38:53.361Z,97267.36
2018-08-23T08:41:20.995Z,97272.78
2018-08-23T08:43:48.755Z,97267.56
2018-08-23T08:46:16.373Z,97268.12
2018-08-23T08:48:44.009Z,97276.45
2018-08-23T08:51:18.821Z,97270.48
2018-08-23T08:53:47.062Z,97273.98
2018-08-23T08:56:14.699Z,97280.77
2018-08-23T08:58:42.883Z,97280.97
2018-08-23T09:01:10.510Z,97275.34
2018-08-23T09:03:38.834Z,97271.83
2018-08-23T09:06:07.614Z,97276.70
2018-08-23T09:08:36.307Z,97268.22
2018-08-23T09:11:04.362Z,97268.22
2018-08-23T09:13:37.212Z,97267.42
2018-08-23T09:16:08.805Z,97271.16
2018-08-23T09:18:38.189Z,97272.52
2018-08-23T09:21:06.717Z,97274.31
2018-08-23T09:23:34.359Z,97274.31
2018-08-23T09:26:01.993Z,97271.02
2018-08-23T09:28:29.689Z,97267.18
2018-08-23T09:30:57.321Z,97268.95
2018-08-23T09:33:26.232Z,97265.67
2018-08-23T09:35:53.878Z,97264.53
2018-08-23T09:38:21.506Z,97264.77
2018-08-23T09:40:49.233Z,97266.12
2018-08-23T09:43:16.860Z,97268.83
2018-08-23T09:45:44.577Z,97262.41
2018-08-23T09:48:12.211Z,97273.25
2018-08-23T09:50:39.980Z,97271.30
2018-08-23T09:53:12.951Z,97282.14
2018-08-23T09:55:40.564Z,97280.02
2018-08-23T09:58:12.425Z,97284.30
2018-08-23T10:00:45.325Z,97288.91
2018-08-23T10:03:18.256Z,97295.92
2018-08-23T10:05:51.069Z,97295.34
2018-08-23T10:08:24.094Z,97293.42
2018-08-23T10:10:56.981Z,97289.92
2018-08-23T10:13:30.113Z,97289.00
2018-08-23T10:17:05.025Z,97289.21
2018-08-23T10:19:37.891Z,97287.73
2018-08-23T10:22:10.891Z,97285.23
2018-08-23T10:24:38.523Z,97287.03
2018-08-23T10:27:06.167Z,97282.02
2018-08-23T10:29:33.826Z,97283.61
2018-08-23T10:32:01.678Z,97275.89
2018-08-23T10:34:29.313Z,97279.04
2018-08-23T10:36:56.974Z,97274.97
2018-08-23T10:39:24.602Z,97282.16
2018-08-23T10:41:52.224Z,97277.53
2018-08-23T10:44:19.951Z,97286.66
2018-08-23T10:46:52.938Z,97277.17
2018-08-23T10:49:20.573Z,97276.03
2018-08-23T10:51:48.189Z,97273.75
2018-08-23T10:54:15.851Z,97282.09
2018-08-23T10:56:43.468Z,97275.31
2018-08-23T10:59:11.166Z,97283.89
2018-08-23T11:01:38.790Z,97268.41
2018-08-23T11:04:07.713Z,97263.55
2018-08-23T11:06:36.188Z,97258.22
2018-08-23T11:09:09.281Z,97256.27
2018-08-23T11:11:37.867Z,97246.22
2018-08-23T11:14:10.956Z,97241.59
2018-08-23T11:16:43.950Z,97233.86
2018-08-23T11:19:17.049Z,97241.64
2018-08-23T11:21:44.675Z,97235.66
2018-08-23T11:24:12.297Z,97236.66
2018-08-23T11:26:40.027Z,97234.94
2018-08-23T11:29:07.658Z,97229.52
2018-08-23T11:31:35.276Z,97228.36
2018-08-23T11:34:03.105Z,97226.45
2018-08-23T11:36:30.763Z,97223.38
2018-08-23T11:38:58.390Z,97221.11
2018-08-23T11:41:26.029Z,97217.80
2018-08-23T11:43:53.658Z,97211.61
2018-08-23T11:46:22.178Z,97212.61
2018-08-23T11:48:50.156Z,97204.88
2018-08-23T11:51:18.541Z,97204.88
2018-08-23T11:53:46.757Z,97198.09
2018-08-23T11:56:14.422Z,97193.67
2018-08-23T11:58:42.693Z,97190.96
2018-08-23T12:01:14.712Z,97187.33
2018-08-23T12:03:42.652Z,97184.61
2018-08-23T12:06:11.200Z,97186.97
2018-08-23T12:08:38.952Z,97179.03
2018-08-23T12:11:06.584Z,97188.20
2018-08-23T12:13:34.229Z,97188.99
2018-08-23T12:16:02.285Z,97188.40
2018-08-23T12:18:32.111Z,97188.40
2018-08-23T12:20:59.744Z,97198.89
2018-08-23T12:23:27.466Z,97206.66
2018-08-23T12:25:55.194Z,97203.95
2018-08-23T12:29:30.926Z,97204.19
2018-08-23T12:31:58.551Z,97193.33
2018-08-23T12:34:30.908Z,97195.45
2018-08-23T12:37:03.895Z,97190.03
2018-08-23T12:39:36.965Z,97181.33
2018-08-23T12:42:09.784Z,97175.55
2018-08-23T12:44:39.202Z,97178.25
2018-08-23T12:47:06.823Z,97170.91
2018-08-23T12:49:34.525Z,97169.76
2018-08-23T12:52:02.109Z,97163.77
2018-08-23T12:54:29.860Z,97158.55
2018-08-23T12:56:57.486Z,97159.91
2018-08-23T12:59:25.163Z,97160.70
2018-08-23T13:01:52.804Z,97157.39
2018-08-23T13:04:20.520Z,97149.13
2018-08-23T13:06:48.102Z,97138.04
2018-08-23T13:09:15.734Z,97131.26
2018-08-23T13:11:43.366Z,97129.91
2018-08-23T13:14:10.996Z,97123.35
2018-08-23T13:16:38.648Z,97121.41
2018-08-23T13:19:06.272Z,97112.70
2018-08-23T13:21:33.905Z,97115.61
2018-08-23T13:24:01.537Z,97121.04
2018-08-23T13:26:34.398Z,97110.19
2018-08-23T13:29:02.027Z,97107.11
2018-08-23T13:31:29.708Z,97109.06
2018-08-23T13:33:57.308Z,97101.12
2018-08-23T13:36:25.094Z,97099.77
2018-08-23T13:38:52.600Z,97094.91
2018-08-23T13:41:20.234Z,97095.14
2018-08-23T13:43:47.864Z,97091.83
2018-08-23T13:46:15.498Z,97087.76
2018-08-23T13:48:43.122Z,97081.77
2018-08-23T13:51:10.773Z,97066.05
2018-08-23T13:53:38.427Z,97072.27
2018-08-23T13:56:06.157Z,97066.84
2018-08-23T13:58:33.773Z,97068.41
2018-08-23T14:01:01.417Z,97063.77
2018-08-23T14:03:29.078Z,97062.41
2018-08-23T14:05:56.735Z,97057.78
2018-08-23T14:08:24.365Z,97051.20
2018-08-23T14:10:52.020Z,97051.20
2018-08-23T14:13:19.648Z,97047.69
2018-08-23T14:15:52.524Z,97045.77
2018-08-23T14:18:20.144Z,97043.06
2018-08-23T14:20:47.792Z,97040.14
2018-08-23T14:23:15.417Z,97036.64
2018-08-23T14:25:43.036Z,97036.64
2018-08-23T14:28:10.678Z,97038.79
2018-08-23T14:30:38.289Z,97028.50
2018-08-23T14:33:05.945Z,97032.00
2018-08-23T14:35:33.596Z,97023.87
2018-08-23T14:38:01.246Z,97027.34
2018-08-23T14:40:28.944Z,97027.34
2018-08-23T14:42:56.550Z,97022.51
2018-08-23T14:45:31.460Z,97023.08
2018-08-23T14:48:04.327Z,97016.86
2018-08-23T14:50:32.530Z,97009.70
2018-08-23T14:53:00.175Z,97006.99
2018-08-23T14:55:33.116Z,97004.51
2018-08-23T14:58:00.809Z,97000.21
2018-08-23T15:00:28.435Z,97001.56
2018-08-23T15:02:56.206Z,97010.70
2018-08-23T15:05:23.830Z,97008.58
2018-08-23T15:07:51.491Z,97012.65
2018-08-23T15:10:19.162Z,97019.99
2018-08-23T15:12:46.777Z,97023.50
2018-08-23T15:15:14.410Z,97030.28
2018-08-23T15:17:42.033Z,97022.14
2018-08-23T15:20:09.706Z,97024.86
2018-08-23T15:22:37.373Z,97028.92
2018-08-23T15:25:05.237Z,97025.82
2018-08-23T15:27:33.225Z,97024.46
2018-08-23T15:30:01.329Z,97025.82
2018-08-23T15:32:28.991Z,97027.17
2018-08-23T15:34:57.242Z,97019.03
2018-08-23T15:37:24.884Z,97025.62
2018-08-23T15:39:52.492Z,97020.20
2018-08-23T15:42:20.182Z,97026.05
2018-08-23T15:44:47.839Z,97026.41
2018-08-23T15:47:15.482Z,97028.33
2018-08-23T15:49:43.211Z,97029.13
2018-08-23T15:52:10.834Z,97041.14
2018-08-23T15:54:38.466Z,97037.06
2018-08-23T15:57:06.084Z,97030.28
2018-08-23T15:59:33.782Z,97035.91
2018-08-23T16:02:01.413Z,97035.91
2018-08-23T16:04:29.093Z,97034.55
2018-08-23T16:06:56.707Z,97028.53
2018-08-23T16:09:24.376Z,97019.83
2018-08-23T16:11:52.007Z,97020.03
2018-08-23T16:14:19.644Z,97015.20
2018-08-23T16:16:52.740Z,97017.91
2018-08-23T16:19:25.789Z,97026.25
2018-08-23T16:21:57.450Z,97020.82
2018-08-23T16:24:25.310Z,97021.38
2018-08-23T16:26:58.393Z,97023.34
2018-08-23T16:29:26.016Z,97022.97
2018-08-23T16:31:53.679Z,97025.45
2018-08-23T16:34:21.322Z,97022.17
2018-08-23T16:36:48.980Z,97015.39
2018-08-23T16:39:16.608Z,97020.25
2018-08-23T16:41:44.374Z,97014.03
2018-08-23T16:44:12.050Z,97011.52
2018-08-23T16:46:39.786Z,97004.73
2018-08-23T16:49:07.470Z,97002.62
2018-08-23T16:51:35.143Z,97008.24
2018-08-23T16:54:02.783Z,96999.48
2018-08-23T16:56:30.458Z,96995.61
2018-08-23T16:58:58.158Z,96993.48
2018-08-23T17:01:25.776Z,96994.05
2018-08-23T17:03:54.253Z,96992.13
2018-08-23T17:06:23.027Z,96981.84
2018-08-23T17:08:50.803Z,96981.28
2018-08-23T17:11:18.453Z,96976.41
2018-08-23T17:13:46.097Z,96975.06
2018-08-23T17:17:20.741Z,96970.98
2018-08-23T17:19:48.369Z,96976.41
2018-08-23T17:22:16.027Z,96977.58
2018-08-23T17:24:43.820Z,96985.72
2018-08-23T17:27:11.325Z,96986.88
2018-08-23T17:29:39.642Z,96992.70
2018-08-23T17:32:07.341Z,96990.34
2018-08-23T17:34:34.986Z,97001.20
2018-08-23T17:37:02.625Z,97000.44
2018-08-23T17:39:30.570Z,97005.87
2018-08-23T17:41:58.202Z,97012.65
2018-08-23T17:44:25.846Z,97022.14
2018-08-23T17:46:53.494Z,97024.62
2018-08-23T17:49:21.152Z,97030.05
2018-08-23T17:51:48.840Z,97034.36
2018-08-23T17:54:16.477Z,97037.63
2018-08-23T17:56:44.115Z,97035.48
2018-08-23T17:59:11.761Z,97032.20
2018-08-23T18:01:39.394Z,97039.55
2018-08-23T18:04:07.170Z,97025.98
2018-08-23T18:06:34.861Z,97032.20
2018-08-23T18:09:02.525Z,97017.84
2018-08-23T18:11:30.221Z,97025.98
2018-08-23T18:13:57.941Z,97025.78
2018-08-23T18:16:30.854Z,97021.52
2018-08-23T18:18:58.479Z,97015.30
2018-08-23T18:21:26.108Z,97008.16
2018-08-23T18:23:53.720Z,97006.00
2018-08-23T18:26:21.370Z,97009.31
2018-08-23T18:28:49.083Z,97010.07
2018-08-23T18:31:16.746Z,97014.14
2018-08-23T18:33:44.386Z,97009.88
2018-08-23T18:36:12.062Z,97015.50
2018-08-23T18:38:39.684Z,97013.16
2018-08-23T18:41:07.345Z,97012.95
2018-08-23T18:43:35.037Z,97019.56
2018-08-23T18:46:02.681Z,97012.59
2018-08-23T18:48:30.726Z,97013.74
2018-08-23T18:50:58.369Z,97019.94
2018-08-23T18:53:26.132Z,97030.59
2018-08-23T18:55:53.818Z,97028.66
2018-08-23T18:58:21.629Z,97034.66
2018-08-23T19:00:49.296Z,97040.08
2018-08-23T19:03:16.912Z,97039.52
2018-08-23T19:05:44.592Z,97044.34
2018-08-23T19:08:12.279Z,97042.59
2018-08-23T19:10:39.977Z,97054.21
2018-08-23T19:13:07.650Z,97054.21
2018-08-23T19:15:40.690Z,97064.50
2018-08-23T19:18:08.505Z,97066.42
2018-08-23T19:20:36.124Z,97070.48
2018-08-23T19:23:03.842Z,97075.91
2018-08-23T19:25:31.504Z,97085.41
2018-08-23T19:27:59.181Z,97076.88
2018-08-23T19:30:26.808Z,97079.58
2018-08-23T19:32:54.493Z,97085.21
2018-08-23T19:35:22.119Z,97093.55
2018-08-23T19:37:49.766Z,97085.50
2018-08-23T19:40:17.408Z,97087.45
2018-08-23T19:42:45.077Z,97084.02
2018-08-23T19:45:12.770Z,97084.22
2018-08-23T19:47:59.058Z,97084.94
2018-08-23T19:50:26.749Z,97085.14
2018-08-23T19:52:54.362Z,97078.72
2018-08-23T19:55:22.001Z,97078.72
2018-08-23T19:57:49.623Z,97078.52
2018-08-23T20:00:17.264Z,97073.09
2018-08-23T20:02:44.892Z,97078.52
2018-08-23T20:05:12.581Z,97076.38
2018-08-23T20:07:40.205Z,97077.53
2018-08-23T20:10:07.822Z,97074.62
2018-08-23T20:12:35.432Z,97079.68
2018-08-23T20:15:03.061Z,97080.24
2018-08-23T20:17:30.670Z,97073.46
2018-08-23T20:19:58.320Z,97065.13
2018-08-23T20:22:26.039Z,97067.24
2018-08-23T20:24:53.666Z,97063.77
2018-08-23T20:27:21.322Z,97066.48
2018-08-23T20:29:49.018Z,97070.55
2018-08-23T20:32:16.669Z,97066.48
2018-08-23T20:34:44.320Z,97070.55
2018-08-23T20:37:12.001Z,97065.89
2018-08-23T20:39:39.705Z,97073.03
2018-08-23T20:42:07.313Z,97068.96
2018-08-23T20:44:34.949Z,97081.17
2018-08-23T20:47:02.711Z,97088.55
2018-08-23T20:49:30.277Z,97093.38
2018-08-23T20:51:57.917Z,97111.60
2018-08-23T20:54:25.700Z,97106.17
2018-08-23T20:56:53.338Z,97111.60
2018-08-23T20:59:20.957Z,97113.72
2018-08-23T21:01:48.581Z,97117.02
2018-08-23T21:04:16.281Z,97129.80
2018-08-23T21:06:43.878Z,97124.37
2018-08-23T21:09:12.934Z,97133.86
2018-08-23T21:11:41.049Z,97107.84
2018-08-23T21:14:09.441Z,97130.95
2018-08-23T21:16:37.319Z,97125.52
2018-08-23T21:19:05.041Z,97128.00
2018-08-23T21:21:32.697Z,97139.09
2018-08-23T21:24:00.372Z,97134.78
2018-08-23T21:26:28.205Z,97137.50
2018-08-23T21:28:55.846Z,97134.02
2018-08-23T21:31:23.479Z,97134.78
2018-08-23T21:33:51.215Z,97130.72
2018-08-23T21:36:18.853Z,97125.66
2018-08-23T21:38:46.486Z,97127.80
2018-08-23T21:41:14.317Z,97126.45
2018-08-23T21:43:42.561Z,97121.59
2018-08-23T21:46:10.661Z,97117.52
2018-08-23T21:48:38.297Z,97115.40
2018-08-23T21:51:05.989Z,97115.40
2018-08-23T21:53:33.716Z,97118.11
2018-08-23T21:56:01.522Z,97115.40
2018-08-23T21:58:29.141Z,97115.40
2018-08-23T22:01:02.380Z,97107.83
2018-08-23T22:03:30.042Z,97102.20
2018-08-23T22:05:57.664Z,97099.69
2018-08-23T22:08:25.300Z,97094.06
2018-08-23T22:10:52.941Z,97089.73
2018-08-23T22:13:20.677Z,97092.70
2018-08-23T22:15:49.337Z,97084.30
2018-08-23T22:18:17.816Z,97086.48
2018-08-23T22:20:45.440Z,97089.20
2018-08-23T22:23:13.481Z,97092.70
2018-08-23T22:25:41.655Z,97097.34
2018-08-23T22:28:09.816Z,97089.73
2018-08-23T22:30:38.224Z,97093.03
2018-08-23T22:33:05.998Z,97090.89
2018-08-23T22:35:33.643Z,97087.61
2018-08-23T22:38:01.282Z,97079.25
2018-08-23T22:40:28.940Z,97075.18
2018-08-23T22:42:56.574Z,97069.75
2018-08-23T22:45:24.223Z,97065.69
2018-08-23T22:47:51.862Z,97064.33
2018-08-23T22:50:19.496Z,97064.33
2018-08-23T22:52:47.139Z,97061.98
2018-08-23T22:55:15.005Z,97056.78
2018-08-23T22:57:42.690Z,97050.57
2018-08-23T23:00:10.334Z,97049.77
2018-08-23T23:02:38.498Z,97047.86
2018-08-23T23:05:06.575Z,97048.42
2018-08-23T23:07:34.243Z,97050.94
2018-08-23T23:10:02.098Z,97051.92
2018-08-23T23:12:30.003Z,97050.37
2018-08-23T23:14:57.646Z,97053.64
2018-08-23T23:17:25.293Z,97048.02
2018-08-23T23:19:52.971Z,97043.95
2018-08-23T23:22:20.614Z,97042.59
2018-08-23T23:24:53.598Z,97035.81
2018-08-23T23:27:21.248Z,97040.45
2018-08-23T23:29:48.890Z,97032.91
2018-08-23T23:32:16.516Z,97029.97
2018-08-23T23:34:44.140Z,97033.47
2018-08-23T23:37:11.764Z,97035.98
2018-08-23T23:39:39.392Z,97036.74
2018-08-23T23:42:07.067Z,97031.55
2018-08-23T23:44:34.768Z,97032.67
2018-08-23T23:47:02.370Z,97027.25
2018-08-23T23:49:30.002Z,97034.39
2018-08-23T23:51:57.709Z,97034.39
2018-08-23T23:54:25.546Z,97028.97
2018-08-23T23:56:53.183Z,97024.91
2018-08-23T23:59:20.812Z,97017.92
